Time;durP1;ratioP1;P1;durP2;ratioP2;P2;SDS_P1;SDS_P2;PMS_P1;PMS_P2;Temp;Humidity;BMP_temperature;BMP_pressure;BME280_temperature;BME280_humidity;BME280_pressure;Samples;Min_cycle;Max_cycle;Signal;HPM_P1;HPM_P2
2023/10/17 00:01:55;;;;;;;4.63;2.05;;;;;;;8.09;61.62;100861.84;4147080;28;20129;-65
2023/10/17 00:03:58;;;;;;;5.80;2.38;;;;;;;8.10;61.66;100853.25;4147189;28;20041;-65
2023/10/17 00:06:01;;;;;;;7.13;2.50;;;;;;;8.15;61.19;100859.47;4147409;28;20034;-65
2023/10/17 00:08:09;;;;;;;4.43;1.98;;;;;;;8.14;61.29;100858.56;4146283;28;20072;-65
2023/10/17 00:10:15;;;;;;;5.43;2.45;;;;;;;8.16;60.42;100861.22;4147272;28;20038;-65
2023/10/17 00:12:33;;;;;;;7.15;2.97;;;;;;;8.16;60.19;100862.13;4145842;28;20411;-65
2023/10/17 00:14:44;;;;;;;7.40;2.83;;;;;;;8.15;60.22;100859.47;4145843;28;20042;-65
2023/10/17 00:16:48;;;;;;;3.78;2.10;;;;;;;8.17;59.82;100857.78;4144047;28;20077;-65
2023/10/17 00:18:50;;;;;;;6.20;2.50;;;;;;;8.21;59.50;100854.47;4146464;28;20038;-65
2023/10/17 00:21:02;;;;;;;5.63;3.03;;;;;;;8.22;59.29;100848.47;4146676;28;20136;-65
2023/10/17 00:23:04;;;;;;;9.82;2.75;;;;;;;8.32;58.98;100854.78;4146037;28;20045;-65
2023/10/17 00:25:09;;;;;;;7.38;2.95;;;;;;;8.23;59.14;100852.78;4147503;28;20069;-65
2023/10/17 00:27:13;;;;;;;6.00;2.63;;;;;;;8.21;59.19;100857.06;4145419;28;20483;-65
2023/10/17 00:29:16;;;;;;;5.97;2.63;;;;;;;8.27;58.79;100858.97;4145371;28;20049;-65
2023/10/17 00:31:21;;;;;;;6.28;3.13;;;;;;;8.21;59.53;100855.34;4147256;28;20554;-65
2023/10/17 00:33:25;;;;;;;4.72;2.20;;;;;;;8.17;60.15;100865.56;4145781;28;20523;-65
2023/10/17 00:35:27;;;;;;;8.38;2.58;;;;;;;8.14;60.71;100860.28;4146132;28;20069;-65
2023/10/17 00:37:31;;;;;;;8.02;2.80;;;;;;;8.14;60.30;100860.28;4145351;28;20046;-65
2023/10/17 00:39:36;;;;;;;10.00;2.83;;;;;;;8.09;59.77;100854.97;4153584;28;20143;-65
2023/10/17 00:41:50;;;;;;;5.22;2.20;;;;;;;8.11;60.05;100858.50;4150985;28;20034;-65
2023/10/17 00:43:53;;;;;;;3.95;2.45;;;;;;;8.11;60.08;100853.31;4151743;28;20038;-65
2023/10/17 00:45:56;;;;;;;5.70;2.83;;;;;;;8.12;59.92;100849.00;4154575;28;20116;-65
2023/10/17 00:48:05;;;;;;;7.63;2.55;;;;;;;8.08;60.17;100850.63;4145224;28;20080;-65
2023/10/17 00:50:13;;;;;;;3.90;2.08;;;;;;;8.02;60.32;100848.72;4145353;28;20042;-65
2023/10/17 00:52:24;;;;;;;4.40;2.08;;;;;;;8.01;60.19;100841.78;4142704;28;20045;-65
2023/10/17 00:54:29;;;;;;;5.38;2.45;;;;;;;7.95;60.89;100839.00;4142971;28;20072;-65
2023/10/17 00:56:37;;;;;;;5.82;2.45;;;;;;;7.95;60.49;100846.78;4140490;28;20044;-65
2023/10/17 00:58:42;;;;;;;6.32;2.33;;;;;;;7.91;60.67;100844.91;4144069;28;20037;-65
2023/10/17 01:00:48;;;;;;;7.15;2.35;;;;;;;7.88;60.67;100839.66;4146126;28;20496;-65
2023/10/17 01:02:58;;;;;;;5.38;2.50;;;;;;;7.89;60.07;100831.06;4146299;28;20062;-65
2023/10/17 01:05:04;;;;;;;5.57;2.88;;;;;;;7.84;60.58;100832.63;4143660;28;20048;-65
2023/10/17 01:07:06;;;;;;;4.85;2.70;;;;;;;7.83;60.71;100828.28;4145127;28;20080;-65
2023/10/17 01:09:17;;;;;;;6.55;2.58;;;;;;;7.82;61.22;100834.28;4143388;28;20038;-65
2023/10/17 01:11:27;;;;;;;4.82;2.17;;;;;;;7.78;61.10;100838.50;4144258;28;20436;-65
2023/10/17 01:13:31;;;;;;;5.88;2.67;;;;;;;7.79;61.43;100839.38;4145999;28;20404;-65
2023/10/17 01:15:37;;;;;;;4.30;2.60;;;;;;;7.78;61.73;100842.78;4144545;28;20061;-65
2023/10/17 01:17:41;;;;;;;5.90;2.70;;;;;;;7.72;61.62;100832.25;4141775;28;20030;-65
2023/10/17 01:19:44;;;;;;;5.07;2.33;;;;;;;7.65;61.50;100845.00;4144239;28;20033;-65
2023/10/17 01:21:48;;;;;;;4.25;2.28;;;;;;;7.57;62.38;100841.25;4161063;28;20123;-65
2023/10/17 01:23:51;;;;;;;3.55;2.05;;;;;;;7.50;62.28;100839.31;4144061;28;20462;-65
2023/10/17 01:25:56;;;;;;;5.18;2.13;;;;;;;7.47;62.69;100831.44;4145816;28;20372;-65
2023/10/17 01:27:59;;;;;;;4.80;2.25;;;;;;;7.50;62.94;100844.47;4144473;28;20573;-65
2023/10/17 01:30:01;;;;;;;4.60;2.70;;;;;;;7.50;62.79;100847.06;4141830;28;20604;-65
2023/10/17 01:32:06;;;;;;;4.20;2.00;;;;;;;7.48;62.22;100846.16;4144870;28;20535;-65
2023/10/17 01:34:12;;;;;;;5.55;2.35;;;;;;;7.51;62.01;100843.66;4145461;28;20065;-65
2023/10/17 01:36:16;;;;;;;7.55;2.88;;;;;;;7.47;62.32;100841.78;4161161;28;20220;-65
2023/10/17 01:38:20;;;;;;;10.57;2.47;;;;;;;7.46;62.53;100837.44;4144041;28;20042;-65
2023/10/17 01:40:25;;;;;;;5.00;2.15;;;;;;;7.49;62.28;100832.34;4145075;28;20038;-65
2023/10/17 01:42:30;;;;;;;6.72;2.05;;;;;;;7.49;62.25;100834.94;4145988;28;20653;-65
2023/10/17 01:44:33;;;;;;;5.93;2.50;;;;;;;7.48;62.15;100834.09;4141869;28;20515;-65
2023/10/17 01:46:38;;;;;;;6.07;2.30;;;;;;;7.43;61.89;100837.34;4127744;28;20743;-65
2023/10/17 01:48:40;;;;;;;4.82;2.20;;;;;;;7.38;62.38;100836.31;4143941;28;20072;-65
2023/10/17 01:50:44;;;;;;;5.85;3.30;;;;;;;7.36;61.97;100835.38;4144809;28;20038;-65
2023/10/17 01:52:49;;;;;;;2.90;1.98;;;;;;;7.34;62.33;100835.31;4145297;28;20116;-67
2023/10/17 01:54:52;;;;;;;;;;;;;;;7.24;62.78;100835.84;4158481;28;20132;-65
2023/10/17 01:57:05;;;;;;;4.65;2.58;;;;;;;7.27;62.49;100842.03;4144035;28;19959;-65
2023/10/17 01:59:13;;;;;;;4.97;2.60;;;;;;;7.30;62.70;100838.63;4142264;28;20133;-65
2023/10/17 02:01:17;;;;;;;4.50;2.30;;;;;;;7.30;62.38;100838.63;4142335;28;20045;-65
2023/10/17 02:03:20;;;;;;;6.70;2.30;;;;;;;7.24;62.36;100833.25;4144957;28;20076;-65
2023/10/17 02:05:23;;;;;;;3.83;2.22;;;;;;;7.22;62.69;100830.63;4147001;28;20095;-65
2023/10/17 02:07:26;;;;;;;5.72;2.45;;;;;;;7.24;62.33;100836.75;4131106;28;20069;-65
2023/10/17 02:11:50;;;;;;;6.50;2.80;;;;;;;7.27;62.55;100830.78;4148556;28;20033;-64
2023/10/17 02:13:56;;;;;;;3.50;1.80;;;;;;;7.25;63.06;100824.69;4129944;28;20073;-64
2023/10/17 02:16:00;;;;;;;7.82;2.17;;;;;;;7.22;62.61;100828.03;4134974;28;20038;-64
2023/10/17 02:18:11;;;;;;;4.07;2.17;;;;;;;7.13;63.00;100830.31;4141319;28;20042;-64
2023/10/17 02:20:29;;;;;;;7.35;2.50;;;;;;;7.11;62.73;100826.78;4148804;28;20500;-64
2023/10/17 02:22:32;;;;;;;5.15;2.20;;;;;;;7.05;63.59;100826.59;4144519;28;20038;-64
2023/10/17 02:24:35;;;;;;;3.38;2.20;;;;;;;7.06;62.92;100825.78;4145015;28;20042;-64
2023/10/17 02:26:43;;;;;;;4.85;2.17;;;;;;;7.08;63.37;100826.69;4147627;28;20048;-65
2023/10/17 02:28:47;;;;;;;4.60;2.38;;;;;;;7.06;63.33;100825.78;4152925;28;20133;-64
2023/10/17 02:30:51;;;;;;;5.38;2.10;;;;;;;7.05;62.95;100831.75;4162934;28;20072;-64
2023/10/17 02:32:56;;;;;;;5.05;2.40;;;;;;;7.05;63.13;100831.75;4144350;28;20598;-64
2023/10/17 02:35:01;;;;;;;;;;;;;;;6.96;63.61;100845.25;4148098;28;21318;-65
2023/10/17 02:37:04;;;;;;;4.95;2.30;;;;;;;6.96;63.65;100838.34;4147053;28;20290;-64
2023/10/17 02:39:09;;;;;;;5.43;2.35;;;;;;;7.04;63.08;100841.22;4147425;28;20042;-64
2023/10/17 02:41:18;;;;;;;5.55;3.40;;;;;;;7.08;63.76;100835.34;4148988;28;20092;-64
2023/10/17 02:43:22;;;;;;;2.85;2.05;;;;;;;7.08;63.56;100834.44;4146393;28;20409;-64
2023/10/17 02:45:24;;;;;;;3.30;2.53;;;;;;;7.13;64.07;100835.50;4144342;28;20069;-64
2023/10/17 02:47:28;;;;;;;5.40;2.42;;;;;;;7.12;64.08;100828.56;4147946;28;20034;-64
2023/10/17 02:49:36;;;;;;;6.15;2.42;;;;;;;7.17;63.88;100829.59;4147497;28;20038;-64
2023/10/17 02:51:42;;;;;;;5.63;2.25;;;;;;;7.13;64.13;100827.75;4148530;28;20084;-65
2023/10/17 02:53:45;;;;;;;3.53;2.28;;;;;;;7.14;64.16;100829.47;4145759;28;20124;-64
2023/10/17 02:55:47;;;;;;;4.30;2.13;;;;;;;7.14;63.91;100821.72;4149104;28;20507;-64
2023/10/17 02:57:51;;;;;;;4.75;2.17;;;;;;;7.16;64.53;100825.25;4147685;28;20455;-64
2023/10/17 02:59:57;;;;;;;5.10;2.25;;;;;;;7.19;64.43;100829.66;4148232;28;20529;-64
2023/10/17 03:02:00;;;;;;;3.83;2.22;;;;;;;7.15;64.53;100834.72;4162576;28;20030;-64
2023/10/17 03:04:07;;;;;;;3.30;2.03;;;;;;;7.10;64.70;100822.47;4148042;28;20132;-64
2023/10/17 03:06:16;;;;;;;3.33;1.90;;;;;;;7.09;64.06;100823.28;4147943;28;20061;-64
2023/10/17 03:08:19;;;;;;;4.97;2.25;;;;;;;7.03;64.10;100821.38;4147974;28;20034;-64
2023/10/17 03:10:37;;;;;;;4.30;2.22;;;;;;;7.04;64.33;100823.13;4147033;28;20522;-64
2023/10/17 03:12:53;;;;;;;4.35;2.13;;;;;;;7.06;64.16;100829.22;4147801;28;20117;-64
2023/10/17 03:17:16;;;;;;;5.03;2.10;;;;;;;7.01;64.41;100823.03;4147017;28;20532;-64
2023/10/17 03:19:25;;;;;;;4.13;2.03;;;;;;;6.98;64.91;100816.03;4147195;28;20092;-64
2023/10/17 03:21:34;;;;;;;6.80;2.22;;;;;;;6.98;65.27;100820.34;4147948;28;20566;-65
2023/10/17 03:23:37;;;;;;;3.90;2.30;;;;;;;6.96;64.94;100811.63;4147804;28;20038;-64
2023/10/17 03:25:41;;;;;;;3.60;2.40;;;;;;;6.99;65.51;100816.91;4149100;28;20038;-64
2023/10/17 03:27:48;;;;;;;5.65;3.10;;;;;;;6.98;64.92;100816.03;4147133;28;20038;-64
2023/10/17 03:29:51;;;;;;;6.68;2.30;;;;;;;6.97;65.11;100818.56;4148443;28;20042;-64
2023/10/17 03:31:58;;;;;;;4.20;2.50;;;;;;;6.98;65.46;100815.19;4144686;28;20054;-64
2023/10/17 03:34:04;;;;;;;7.18;2.70;;;;;;;6.89;65.96;100814.84;4148201;28;20042;-64
2023/10/17 03:36:34;;;;;;;5.50;3.13;;;;;;;6.90;65.89;100814.03;4146933;28;20132;-64
2023/10/17 03:38:36;;;;;;;6.68;2.97;;;;;;;6.96;66.30;100797.00;4149732;28;20091;-64
2023/10/17 03:40:41;;;;;;;8.20;3.17;;;;;;;7.00;65.99;100795.41;4144108;28;20037;-64
2023/10/17 03:42:46;;;;;;;5.70;2.90;;;;;;;6.97;66.00;100788.44;4146615;28;20121;-64
2023/10/17 03:44:48;;;;;;;;;;;;;;;6.86;66.23;100783.72;4145783;28;20061;-65
2023/10/17 03:46:51;;;;;;;4.72;2.70;;;;;;;6.92;66.48;100784.81;4148827;28;19921;-64
2023/10/17 03:48:58;;;;;;;6.20;2.72;;;;;;;6.95;66.01;100782.34;4147029;28;20030;-64
2023/10/17 03:51:10;;;;;;;6.13;3.17;;;;;;;7.01;66.20;100789.44;4147202;28;20542;-64
2023/10/17 03:53:15;;;;;;;6.75;2.75;;;;;;;6.97;66.46;100790.16;4147631;28;20056;-64
2023/10/17 03:55:21;;;;;;;7.20;2.78;;;;;;;6.99;66.31;100798.81;4144191;28;20068;-64
2023/10/17 03:57:27;;;;;;;6.65;2.72;;;;;;;6.92;65.97;100795.16;4147188;28;20424;-64
2023/10/17 03:59:38;;;;;;;6.88;3.08;;;;;;;6.94;66.10;100802.97;4146012;28;20045;-64
2023/10/17 04:01:46;;;;;;;6.82;3.10;;;;;;;7.00;65.95;100798.00;4144795;28;20048;-64
2023/10/17 04:03:53;;;;;;;7.00;3.08;;;;;;;7.01;66.64;100801.44;4145063;28;20050;-65
2023/10/17 04:06:14;;;;;;;5.82;2.95;;;;;;;7.06;66.61;100800.78;4146836;28;20042;-64
2023/10/17 04:08:19;;;;;;;6.93;3.10;;;;;;;7.11;66.03;100806.09;4145163;28;20399;-64
2023/10/17 04:10:23;;;;;;;5.20;2.92;;;;;;;7.11;66.38;100806.09;4147131;28;20458;-64
2023/10/17 04:12:37;;;;;;;6.88;2.95;;;;;;;7.07;66.10;100799.97;4146277;28;20034;-64
2023/10/17 04:14:50;;;;;;;5.10;2.87;;;;;;;7.06;66.42;100787.84;4146172;28;20395;-64
2023/10/17 04:16:55;;;;;;;7.05;3.10;;;;;;;7.05;66.24;100790.41;4146628;28;20052;-64
2023/10/17 04:19:00;;;;;;;7.88;3.10;;;;;;;7.04;66.76;100788.63;4144168;28;20029;-64
2023/10/17 04:21:16;;;;;;;4.97;2.92;;;;;;;7.03;66.36;100792.06;4147215;28;20049;-64
2023/10/17 04:23:26;;;;;;;6.65;3.08;;;;;;;7.02;66.96;100795.47;4143196;28;20042;-64
2023/10/17 04:25:34;;;;;;;8.95;3.95;;;;;;;6.99;66.78;100793.66;4143177;28;20127;-64
2023/10/17 04:27:37;;;;;;;8.25;3.33;;;;;;;6.95;67.12;100792.69;4146101;28;20045;-64
2023/10/17 04:29:44;;;;;;;5.90;2.95;;;;;;;6.97;66.75;100795.31;4145288;28;20041;-64
2023/10/17 04:31:49;;;;;;;5.88;3.22;;;;;;;7.01;66.60;100801.44;4143622;28;20038;-64
2023/10/17 04:33:56;;;;;;;7.35;3.08;;;;;;;7.05;67.09;100803.31;4146744;28;20048;-64
2023/10/17 04:36:00;;;;;;;6.35;3.30;;;;;;;7.07;66.90;100799.09;4147147;28;20385;-64
2023/10/17 04:38:16;;;;;;;8.02;3.45;;;;;;;7.05;66.69;100801.59;4146622;28;20038;-64
2023/10/17 04:40:35;;;;;;;5.22;2.90;;;;;;;7.04;66.76;100794.69;4143472;28;20540;-64
2023/10/17 04:42:56;;;;;;;6.15;3.30;;;;;;;7.03;66.67;100794.66;4147739;28;20042;-65
2023/10/17 04:45:05;;;;;;;6.60;3.25;;;;;;;7.02;66.67;100795.47;4145920;28;20064;-64
2023/10/17 04:47:25;;;;;;;6.88;3.17;;;;;;;7.02;66.53;100790.28;4146256;28;20069;-64
2023/10/17 04:49:30;;;;;;;7.72;3.42;;;;;;;6.98;66.90;100797.94;4140173;28;20084;-65
2023/10/17 04:51:42;;;;;;;5.15;3.10;;;;;;;6.99;66.82;100810.06;4147667;28;20033;-65
2023/10/17 04:53:48;;;;;;;7.22;3.10;;;;;;;6.99;66.97;100812.63;4146647;28;20060;-65
2023/10/17 04:56:11;;;;;;;8.38;3.20;;;;;;;6.96;66.76;100811.63;4145448;28;20044;-64
2023/10/17 04:58:30;;;;;;;7.70;3.88;;;;;;;6.98;66.91;100810.00;4146408;28;20041;-64
2023/10/17 05:01:10;;;;;;;10.23;4.03;;;;;;;6.94;67.38;100806.41;4144240;28;20480;-64
2023/10/17 05:03:14;;;;;;;6.70;3.65;;;;;;;6.91;67.38;100798.56;4144359;28;20507;-64
2023/10/17 05:07:53;;;;;;;7.32;3.85;;;;;;;6.95;67.10;100805.59;4143198;28;20492;-64
2023/10/17 06:18:38;;;;;;;7.93;3.15;;;;;;;7.07;65.37;100779.28;4134194;28;20064;-65
2023/10/17 06:21:06;;;;;;;7.97;2.88;;;;;;;7.13;65.28;100783.78;4146956;28;20041;-65
2023/10/17 06:24:06;;;;;;;7.55;2.67;;;;;;;7.13;65.81;100782.06;4146399;28;20046;-65
2023/10/17 06:26:07;;;;;;;7.30;2.85;;;;;;;7.17;64.86;100785.66;4143137;28;20038;-64
2023/10/17 06:28:34;;;;;;;4.65;2.40;;;;;;;7.31;64.11;100794.72;4146515;28;20108;-66
2023/10/17 06:30:45;;;;;;;;;;;;;;;7.20;64.67;100790.03;4146523;28;20038;-65
2023/10/17 06:33:03;;;;;;;7.15;2.78;;;;;;;7.36;64.06;100781.06;4143121;28;19936;-65
2023/10/17 06:35:20;;;;;;;7.18;3.42;;;;;;;7.51;63.63;100782.44;4145869;28;20038;-64
2023/10/17 06:37:30;;;;;;;6.25;3.28;;;;;;;7.56;62.25;100785.16;4143862;28;20042;-65
2023/10/17 06:39:36;;;;;;;10.02;4.50;;;;;;;7.56;62.22;100790.34;4143920;28;20034;-66
2023/10/17 06:41:39;;;;;;;7.07;3.50;;;;;;;7.63;61.36;100787.13;4142188;28;20038;-65
2023/10/17 06:43:46;;;;;;;11.00;3.60;;;;;;;7.56;61.85;100786.88;4145256;28;20034;-66
2023/10/17 06:45:54;;;;;;;13.50;8.20;;;;;;;7.60;61.71;100789.63;4141756;28;20049;-66
2023/10/17 06:47:58;;;;;;;34.53;19.38;;;;;;;7.64;61.49;100796.66;4141083;28;20038;-66
2023/10/17 06:51:21;;;;;;;19.48;11.63;;;;;;;7.61;61.87;100796.56;4146491;28;20116;-66
2023/10/17 06:53:01;;;;;;;7.97;4.25;;;;;;;7.63;61.19;100794.88;4144658;28;20503;-67
2023/10/17 06:55:07;;;;;;;21.95;15.82;;;;;;;7.68;61.29;100795.91;4147514;28;20034;-67
2023/10/17 06:57:18;;;;;;;12.25;6.45;;;;;;;7.76;61.60;100795.28;4147941;28;20060;-67
2023/10/17 06:59:33;;;;;;;10.80;3.60;;;;;;;7.79;61.06;100796.25;4148879;28;20034;-67
2023/10/17 07:01:35;;;;;;;11.20;4.55;;;;;;;7.79;61.40;100798.81;4146541;28;20038;-65
2023/10/17 07:03:44;;;;;;;15.57;5.35;;;;;;;7.94;60.96;100793.22;4147727;28;20057;-66
2023/10/17 07:05:50;;;;;;;11.20;3.85;;;;;;;7.90;60.73;100791.41;4148661;28;20046;-66
2023/10/17 07:07:53;;;;;;;;;;;;;;;7.81;61.39;100780.75;4146094;28;20038;-66
2023/10/17 07:10:16;;;;;;;8.48;3.30;;;;;;;7.88;60.79;100794.78;4147976;28;19960;-66
2023/10/17 07:12:20;;;;;;;6.50;2.75;;;;;;;7.99;60.54;100796.00;4149066;28;20037;-66
2023/10/17 07:14:25;;;;;;;11.90;3.30;;;;;;;8.03;60.77;100788.34;4148353;28;20103;-65
2023/10/17 07:16:33;;;;;;;8.05;3.10;;;;;;;8.09;60.77;100792.84;4149003;28;20049;-65
2023/10/17 07:18:44;;;;;;;8.00;3.20;;;;;;;8.17;60.27;100790.47;4148878;28;20065;-65
2023/10/17 07:23:15;;;;;;;6.28;3.17;;;;;;;8.28;59.44;100793.34;4148899;28;20452;-66
2023/10/17 07:25:19;;;;;;;10.55;3.67;;;;;;;8.27;59.55;100792.50;4149032;28;20044;-66
2023/10/17 07:27:33;;;;;;;10.83;3.40;;;;;;;8.21;59.79;100787.13;4148697;28;20115;-66
2023/10/17 07:29:36;;;;;;;8.13;3.28;;;;;;;8.21;60.05;100787.13;4147475;28;20813;-66
2023/10/17 07:31:39;;;;;;;16.70;3.30;;;;;;;8.27;59.66;100778.66;4148944;28;20088;-66
2023/10/17 07:33:43;;;;;;;10.32;3.42;;;;;;;8.23;59.85;100777.69;4148941;28;20037;-66
2023/10/17 07:35:51;;;;;;;8.43;4.15;;;;;;;8.30;59.57;100777.03;4148780;28;20034;-66
2023/10/17 07:37:59;;;;;;;11.55;4.40;;;;;;;8.29;59.79;100782.16;4148601;28;20045;-66
2023/10/17 07:40:21;;;;;;;7.30;3.55;;;;;;;8.36;59.72;100778.91;4147509;28;20048;-66
2023/10/17 07:42:30;;;;;;;7.82;3.25;;;;;;;8.42;59.63;100789.44;4147198;28;20053;-66
2023/10/17 07:44:34;;;;;;;9.32;4.25;;;;;;;8.54;58.09;100781.16;4153669;28;20045;-66
2023/10/17 07:46:38;;;;;;;9.35;3.45;;;;;;;8.56;58.28;100785.56;4149222;28;20038;-66
2023/10/17 07:48:44;;;;;;;11.27;3.70;;;;;;;8.55;58.21;100782.94;4148245;28;20124;-66
2023/10/17 07:50:50;;;;;;;8.25;3.25;;;;;;;8.53;58.34;100779.44;4147237;28;20034;-66
2023/10/17 07:52:59;;;;;;;8.35;2.97;;;;;;;8.61;58.53;100784.81;4144898;28;20034;-65
2023/10/17 07:55:18;;;;;;;11.80;4.47;;;;;;;8.65;58.19;100777.16;4144500;28;20042;-65
2023/10/17 07:57:23;;;;;;;7.25;3.30;;;;;;;8.70;58.40;100778.19;4147317;28;20500;-65
2023/10/17 07:59:31;;;;;;;6.68;3.15;;;;;;;8.68;58.04;100777.25;4144824;28;20499;-66
2023/10/17 08:01:43;;;;;;;10.35;3.97;;;;;;;8.68;57.55;100779.84;4148779;28;20065;-66
2023/10/17 08:03:57;;;;;;;9.95;3.92;;;;;;;8.69;57.33;100781.59;4147844;28;20041;-66
2023/10/17 08:06:05;;;;;;;12.75;4.43;;;;;;;8.64;57.42;100782.31;4148457;28;20033;-65
2023/10/17 08:08:13;;;;;;;8.88;3.47;;;;;;;8.66;57.57;100780.63;4148629;28;20038;-65
2023/10/17 08:10:29;;;;;;;8.35;3.90;;;;;;;8.70;57.37;100788.56;4144557;28;20125;-66
2023/10/17 08:12:33;;;;;;;5.97;3.30;;;;;;;8.66;58.29;100791.88;4148558;28;20034;-65
2023/10/17 08:14:41;;;;;;;6.55;3.78;;;;;;;8.78;57.90;100783.56;4148320;28;20038;-65
2023/10/17 08:16:46;;;;;;;6.43;3.38;;;;;;;8.82;57.87;100785.41;4148075;28;20096;-65
2023/10/17 08:18:55;;;;;;;;;;;;;;;8.95;57.16;100789.22;4148517;28;20514;-66
2023/10/17 08:23:20;;;;;;;8.02;3.80;;;;;;;8.74;57.45;100789.50;4148025;28;20077;-66
2023/10/17 08:25:30;;;;;;;7.45;4.20;;;;;;;8.96;56.76;100784.88;4148073;28;20129;-66
2023/10/17 08:27:45;;;;;;;6.28;3.60;;;;;;;8.86;57.02;100784.66;4146910;28;20518;-66
2023/10/17 08:29:49;;;;;;;8.43;4.13;;;;;;;8.90;56.58;100785.59;4151361;28;20042;-66
2023/10/17 08:31:52;;;;;;;5.80;3.53;;;;;;;8.84;57.06;100790.63;4146070;28;20080;-66
2023/10/17 08:34:09;;;;;;;11.10;4.28;;;;;;;8.85;56.95;100797.59;4147239;28;20041;-66
2023/10/17 08:36:12;;;;;;;8.00;3.67;;;;;;;8.81;57.35;100800.94;4150228;28;20455;-66
2023/10/17 08:38:14;;;;;;;7.03;4.38;;;;;;;8.95;56.90;100802.16;4150536;28;20037;-66
2023/10/17 08:40:31;;;;;;;9.15;4.38;;;;;;;9.01;56.87;100797.13;4147780;28;20041;-66
2023/10/17 08:42:38;;;;;;;11.07;4.95;;;;;;;9.04;56.47;100793.75;4143914;28;20448;-66
2023/10/17 08:44:46;;;;;;;10.98;4.40;;;;;;;8.96;56.90;100801.31;4149645;28;20446;-66
2023/10/17 08:46:51;;;;;;;11.65;5.05;;;;;;;9.04;57.12;100799.81;4154180;28;20096;-66
2023/10/17 08:48:56;;;;;;;12.95;5.30;;;;;;;9.10;56.87;100809.47;4147575;28;20124;-66
2023/10/17 08:50:59;;;;;;;11.60;4.63;;;;;;;9.13;56.57;100803.50;4147744;28;20092;-66
2023/10/17 08:53:12;;;;;;;10.45;4.63;;;;;;;9.13;56.70;100798.31;4147753;28;20069;-66
2023/10/17 08:55:16;;;;;;;13.20;5.07;;;;;;;9.13;56.97;100788.78;4147280;28;20140;-66
2023/10/17 08:57:18;;;;;;;9.23;4.97;;;;;;;9.19;56.64;100790.66;4147729;28;20041;-66
2023/10/17 08:59:45;;;;;;;9.48;4.88;;;;;;;9.18;56.51;100794.09;4147185;28;20133;-66
2023/10/17 09:02:00;;;;;;;12.48;4.88;;;;;;;9.15;57.00;100789.69;4147878;28;20125;-66
2023/10/17 09:04:04;;;;;;;12.02;4.57;;;;;;;9.24;57.08;100783.84;4147656;28;20062;-66
2023/10/17 09:06:28;;;;;;;11.18;5.07;;;;;;;9.30;56.70;100791.81;4147739;28;20046;-66
2023/10/17 09:08:43;;;;;;;13.30;5.30;;;;;;;9.34;56.32;100783.25;4147268;28;20084;-66
2023/10/17 09:10:51;;;;;;;10.60;4.82;;;;;;;9.31;56.97;100774.53;4147528;28;20080;-66
2023/10/17 09:15:30;;;;;;;8.93;5.15;;;;;;;9.38;56.77;100785.09;4148018;28;20046;-66
2023/10/17 09:17:38;;;;;;;13.52;5.32;;;;;;;9.38;57.25;100785.09;4143620;28;20129;-66
2023/10/17 09:19:47;;;;;;;12.43;5.72;;;;;;;9.60;56.13;100785.59;4147321;28;20037;-66
2023/10/17 09:21:50;;;;;;;10.35;4.53;;;;;;;9.60;55.81;100786.47;4147525;28;20034;-66
2023/10/17 09:23:53;;;;;;;13.60;5.30;;;;;;;9.56;55.88;100779.47;4147265;28;20392;-66
2023/10/17 09:25:58;;;;;;;7.53;4.60;;;;;;;9.57;55.72;100781.19;4147245;28;20538;-66
2023/10/17 09:28:01;;;;;;;7.50;4.38;;;;;;;9.47;56.13;100778.38;4147001;28;20044;-66
2023/10/17 09:30:12;;;;;;;8.32;4.70;;;;;;;9.53;57.31;100778.50;4145972;28;20084;-66
2023/10/17 09:32:35;;;;;;;11.05;6.40;;;;;;;9.62;57.20;100778.72;4147338;28;20042;-66
2023/10/17 09:34:40;;;;;;;10.75;5.95;;;;;;;9.67;56.37;100773.66;4146103;28;20121;-66
2023/10/17 09:36:46;;;;;;;7.75;5.15;;;;;;;9.65;56.19;100778.81;4147304;28;20499;-66
2023/10/17 09:38:49;;;;;;;12.07;4.32;;;;;;;9.69;56.35;100774.56;4147081;28;20527;-66
2023/10/17 09:40:53;;;;;;;13.60;4.57;;;;;;;9.87;55.71;100774.06;4147141;28;20043;-66
2023/10/17 09:43:14;;;;;;;130.90;68.82;;;;;;;9.92;55.29;100772.47;4145478;28;20038;-66
2023/10/17 09:45:17;;;;;;;53.33;29.27;;;;;;;9.90;56.17;100782.81;4145064;28;20038;-66
2023/10/17 09:47:40;;;;;;;13.15;5.40;;;;;;;9.93;55.79;100785.50;4150227;28;20137;-66
2023/10/17 09:49:45;;;;;;;11.70;6.82;;;;;;;10.04;55.92;100788.31;4147148;28;20042;-66
2023/10/17 09:51:52;;;;;;;13.18;7.30;;;;;;;10.18;55.89;100788.63;4147138;28;20506;-66
2023/10/17 09:53:58;;;;;;;10.43;5.90;;;;;;;10.30;55.80;100790.59;4147061;28;20096;-66
2023/10/17 09:56:06;;;;;;;8.70;5.00;;;;;;;10.29;56.42;100788.81;4147074;28;20052;-66
2023/10/17 09:58:10;;;;;;;12.18;4.75;;;;;;;10.43;54.88;100791.75;4143808;28;20133;-66
2023/10/17 10:00:30;;;;;;;9.10;4.90;;;;;;;10.40;54.67;100787.38;4142793;28;20508;-66
2023/10/17 10:02:36;;;;;;;8.45;4.45;;;;;;;10.33;54.23;100780.25;4147373;28;20061;-66
2023/10/17 10:04:43;;;;;;;11.02;4.75;;;;;;;10.33;55.30;100779.38;4147693;28;20037;-66
2023/10/17 10:06:47;;;;;;;9.75;4.72;;;;;;;10.47;53.99;100778.84;4145312;28;20456;-66
2023/10/17 10:08:54;;;;;;;8.75;4.30;;;;;;;10.46;54.38;100777.09;4146406;28;20129;-66
2023/10/17 10:10:57;;;;;;;7.95;3.90;;;;;;;10.51;54.47;100779.78;4146783;28;20549;-66
2023/10/17 10:13:01;;;;;;;8.88;4.78;;;;;;;10.56;53.27;100774.69;4146627;28;20034;-66
2023/10/17 10:15:06;;;;;;;7.75;4.55;;;;;;;10.50;54.14;100765.03;4146954;28;20038;-66
2023/10/17 10:17:09;;;;;;;;;;;;;;;10.57;54.25;100766.91;4147228;28;20038;-66
2023/10/17 10:19:14;;;;;;;5.43;3.60;;;;;;;10.48;54.16;100774.50;4146663;28;19922;-66
2023/10/17 10:21:18;;;;;;;;;;;;;;;10.55;54.93;100781.59;4147184;28;20488;-66
2023/10/17 10:23:33;;;;;;;15.68;5.60;;;;;;;10.79;53.40;100781.19;4146824;28;19964;-66
2023/10/17 10:26:14;;;;;;;7.95;5.15;;;;;;;10.61;53.80;100776.50;4143816;28;20471;-66
2023/10/17 10:28:29;;;;;;;9.27;5.63;;;;;;;10.63;54.24;100779.13;4148499;28;20038;-66
2023/10/17 10:30:43;;;;;;;9.77;4.85;;;;;;;10.65;54.45;100772.25;4146341;28;20030;-66
2023/10/17 10:32:50;;;;;;;9.07;5.25;;;;;;;10.60;55.31;100779.97;4147110;28;20065;-66
2023/10/17 10:34:53;;;;;;;8.38;5.68;;;;;;;10.66;55.07;100774.00;4149734;28;20120;-66
2023/10/17 10:36:59;;;;;;;10.95;4.90;;;;;;;10.71;55.41;100761.97;4148723;28;20445;-66
2023/10/17 10:39:12;;;;;;;12.15;4.72;;;;;;;11.04;54.33;100759.91;4149703;28;20065;-66
2023/10/17 10:41:18;;;;;;;16.55;5.03;;;;;;;10.97;54.48;100753.75;4145556;28;20040;-66
2023/10/17 10:43:20;;;;;;;13.32;4.97;;;;;;;10.80;54.79;100751.72;4149643;28;20100;-66
2023/10/17 10:45:29;;;;;;;9.40;5.65;;;;;;;10.80;55.06;100754.31;4149721;28;20073;-66
2023/10/17 10:47:32;;;;;;;7.47;4.32;;;;;;;10.83;55.00;100750.91;4149319;28;20056;-66
2023/10/17 10:49:36;;;;;;;11.15;5.43;;;;;;;10.95;54.30;100748.53;4149552;28;20041;-66
2023/10/17 10:51:47;;;;;;;12.27;5.55;;;;;;;10.96;54.13;100745.06;4148635;28;20038;-66
2023/10/17 10:53:56;;;;;;;10.75;5.30;;;;;;;11.11;54.54;100731.44;4144996;28;20519;-66
2023/10/17 10:56:00;;;;;;;9.23;5.13;;;;;;;11.12;53.76;100742.72;4146163;28;20526;-66
2023/10/17 10:58:03;;;;;;;10.93;5.32;;;;;;;11.20;52.81;100737.63;4149180;28;20034;-66
2023/10/17 11:00:09;;;;;;;10.02;6.00;;;;;;;11.26;51.82;100737.75;4148010;28;20042;-66
2023/10/17 11:02:13;;;;;;;8.38;4.30;;;;;;;11.12;52.81;100727.97;4149235;28;20062;-66
2023/10/17 11:04:16;;;;;;;14.80;5.83;;;;;;;11.31;52.58;100729.16;4149330;28;20045;-66
2023/10/17 11:06:24;;;;;;;9.60;4.72;;;;;;;11.30;52.29;100726.53;4148029;28;20044;-66
2023/10/17 11:08:36;;;;;;;8.90;4.80;;;;;;;11.26;52.93;100732.56;4148897;28;20129;-66
2023/10/17 11:10:40;;;;;;;11.27;5.65;;;;;;;11.51;51.99;100721.63;4149327;28;20037;-66
2023/10/17 11:12:53;;;;;;;7.22;5.15;;;;;;;11.43;51.28;100712.84;4149310;28;20037;-66
2023/10/17 11:15:09;;;;;;;7.82;4.80;;;;;;;11.37;51.78;100706.69;4149309;28;20049;-66
2023/10/17 11:17:13;;;;;;;8.15;4.53;;;;;;;11.29;51.62;100699.63;4148960;28;20128;-65
2023/10/17 11:19:19;;;;;;;8.18;4.00;;;;;;;11.39;52.44;100704.97;4149251;28;20040;-65
2023/10/17 11:21:24;;;;;;;6.43;4.15;;;;;;;11.68;51.46;100705.38;4149239;28;20034;-66
2023/10/17 11:23:29;;;;;;;10.02;4.93;;;;;;;11.60;51.26;100697.47;4147720;28;20062;-66
2023/10/17 11:25:34;;;;;;;10.07;5.05;;;;;;;11.58;51.39;100699.19;4148886;28;20483;-66